Time;durP1;ratioP1;P1;durP2;ratioP2;P2;SDS_P1;SDS_P2;PMS_P1;PMS_P2;Temp;Humidity;BMP_temperature;BMP_pressure;BME280_temperature;BME280_humidity;BME280_pressure;Samples;Min_cycle;Max_cycle;Signal;HPM_P1;HPM_P2
2022/04/24 00:01:03;;;;;;;;;;;;;;;12.43;46.28;98930.81;5070160;28;20051;-78
2022/04/24 00:03:31;;;;;;;4.68;4.13;;;;;;;12.36;46.26;98925.03;5074076;28;19920;-78
2022/04/24 00:05:58;;;;;;;4.78;4.15;;;;;;;12.30;46.55;98918.91;5076142;28;20076;-77
2022/04/24 00:08:26;;;;;;;4.35;3.95;;;;;;;12.26;46.68;98922.81;5074464;28;20053;-78
2022/04/24 00:10:55;;;;;;;5.57;4.10;;;;;;;12.19;46.70;98917.88;5071347;28;20052;-80
2022/04/24 00:13:24;;;;;;;5.38;4.10;;;;;;;12.11;47.02;98918.88;5067961;28;20071;-78
2022/04/24 00:15:52;;;;;;;4.05;3.60;;;;;;;12.07;47.23;98915.19;5074192;28;20060;-79
2022/04/24 00:18:19;;;;;;;5.07;4.32;;;;;;;12.02;47.36;98910.72;5074788;28;20048;-78
2022/04/24 00:20:46;;;;;;;4.63;4.22;;;;;;;11.96;47.77;98907.38;5073594;28;20048;-78
2022/04/24 00:23:14;;;;;;;6.45;4.55;;;;;;;11.91;48.12;98909.66;5072052;28;20059;-79
2022/04/24 00:25:41;;;;;;;5.15;4.40;;;;;;;11.86;47.75;98904.31;5075263;28;20056;-79
2022/04/24 00:28:10;;;;;;;4.72;4.32;;;;;;;11.78;48.04;98906.13;5072411;28;20060;-79
2022/04/24 00:30:37;;;;;;;5.25;4.57;;;;;;;11.69;48.48;98900.72;5073970;28;20378;-79
2022/04/24 00:33:07;;;;;;;5.22;4.55;;;;;;;11.67;48.63;98905.03;5070787;28;20053;-79
2022/04/24 00:35:35;;;;;;;5.30;4.68;;;;;;;11.62;48.70;98897.75;5074568;28;20250;-79
2022/04/24 00:38:02;;;;;;;6.00;4.70;;;;;;;11.57;48.88;98906.41;5072034;28;20428;-78
2022/04/24 00:40:29;;;;;;;5.68;4.50;;;;;;;11.46;49.19;98900.53;5075005;28;20054;-78
2022/04/24 00:42:57;;;;;;;5.35;4.85;;;;;;;11.41;49.80;98900.81;5074367;28;20416;-78
2022/04/24 00:45:26;;;;;;;5.05;4.50;;;;;;;11.35;49.84;98905.84;5075486;28;20053;-78
2022/04/24 00:47:53;;;;;;;5.60;5.00;;;;;;;11.28;49.90;98900.09;5074078;28;20048;-78
2022/04/24 00:50:20;;;;;;;5.28;4.78;;;;;;;11.26;49.96;98902.41;5074192;28;20049;-77
2022/04/24 00:52:48;;;;;;;5.13;4.63;;;;;;;11.21;49.94;98911.03;5072063;28;20044;-78
2022/04/24 00:55:18;;;;;;;5.40;4.90;;;;;;;11.17;49.93;98910.94;5074032;28;20503;-79
2022/04/24 00:57:46;;;;;;;5.18;4.47;;;;;;;11.10;50.21;98909.94;5073679;28;20400;-79
2022/04/24 01:00:14;;;;;;;5.70;4.93;;;;;;;11.08;50.24;98918.63;5073723;28;20059;-79
2022/04/24 01:02:44;;;;;;;5.55;4.95;;;;;;;11.02;50.73;98917.28;5073949;28;20401;-79
2022/04/24 01:05:11;;;;;;;6.63;5.82;;;;;;;10.97;50.70;98921.13;5073788;28;20040;-78
2022/04/24 01:07:39;;;;;;;6.15;5.50;;;;;;;10.91;51.09;98925.34;5070373;28;20056;-78
2022/04/24 01:10:07;;;;;;;5.50;5.00;;;;;;;10.89;51.23;98916.53;5073781;28;20672;-79
2022/04/24 01:12:35;;;;;;;6.53;5.68;;;;;;;10.86;51.39;98911.69;5074239;28;20049;-78
2022/04/24 01:15:02;;;;;;;5.78;5.18;;;;;;;10.82;51.24;98910.75;5073170;28;20075;-78
2022/04/24 01:17:32;;;;;;;5.93;5.25;;;;;;;10.81;51.21;98911.09;5072622;28;20055;-78
2022/04/24 01:20:01;;;;;;;7.60;5.40;;;;;;;10.77;51.72;98908.22;5073611;28;20052;-78
2022/04/24 01:22:36;;;;;;;5.43;4.93;;;;;;;10.75;51.50;98908.59;5070947;28;20053;-79
2022/04/24 01:25:03;;;;;;;5.53;5.03;;;;;;;10.75;51.74;98913.31;5072233;28;20048;-78
2022/04/24 01:27:31;;;;;;;5.70;5.10;;;;;;;10.73;51.41;98912.88;5074231;28;20044;-76
2022/04/24 01:29:58;;;;;;;6.35;5.60;;;;;;;10.70;51.79;98913.59;5073906;28;20407;-79
2022/04/24 01:32:26;;;;;;;6.30;5.70;;;;;;;10.69;51.91;98903.63;5073441;28;20048;-79
2022/04/24 01:34:53;;;;;;;5.88;5.38;;;;;;;10.66;51.95;98912.69;5068671;28;20053;-78
2022/04/24 01:37:20;;;;;;;6.45;5.85;;;;;;;10.65;52.20;98911.06;5072624;28;20052;-78
2022/04/24 01:39:49;;;;;;;5.55;5.05;;;;;;;10.61;52.00;98910.97;5072677;28;20045;-78
2022/04/24 01:42:16;;;;;;;6.37;5.63;;;;;;;10.58;52.10;98906.06;5074169;28;20588;-78
2022/04/24 01:44:45;;;;;;;6.57;5.70;;;;;;;10.59;52.17;98912.47;5073720;28;20486;-78
2022/04/24 01:47:12;;;;;;;6.35;5.75;;;;;;;10.56;52.38;98906.44;5073748;28;20059;-78
2022/04/24 01:49:39;;;;;;;8.02;6.70;;;;;;;10.52;52.43;98901.91;5073979;28;20064;-78
2022/04/24 01:52:10;;;;;;;6.18;5.53;;;;;;;10.50;52.29;98905.06;5071273;28;20052;-76
2022/04/24 01:54:38;;;;;;;6.22;5.63;;;;;;;10.50;52.23;98895.94;5068428;28;20052;-77
2022/04/24 01:57:07;;;;;;;6.88;5.95;;;;;;;10.47;52.68;98899.41;5068399;28;20048;-79
2022/04/24 01:59:34;;;;;;;6.90;6.20;;;;;;;10.43;52.43;98904.84;5064995;28;20051;-79
2022/04/24 02:02:01;;;;;;;6.60;5.95;;;;;;;10.43;52.35;98904.03;5070521;28;20052;-79
2022/04/24 02:04:29;;;;;;;6.43;5.57;;;;;;;10.40;52.65;98894.44;5071782;28;20381;-78
2022/04/24 02:06:56;;;;;;;6.38;5.78;;;;;;;10.38;52.69;98901.53;5073817;28;20047;-79
2022/04/24 02:09:23;;;;;;;6.35;5.75;;;;;;;10.37;52.71;98900.69;5073754;28;20071;-78
2022/04/24 02:11:51;;;;;;;7.28;6.57;;;;;;;10.35;52.77;98897.44;5074305;28;20048;-79
2022/04/24 02:14:20;;;;;;;6.82;6.18;;;;;;;10.32;52.55;98900.94;5073019;28;20404;-79
2022/04/24 02:16:47;;;;;;;7.40;6.70;;;;;;;10.29;52.76;98899.69;5056886;28;20053;-79
2022/04/24 02:19:15;;;;;;;7.10;6.40;;;;;;;10.26;52.77;98894.78;5064052;28;20044;-79
2022/04/24 02:21:42;;;;;;;6.88;6.28;;;;;;;10.23;53.03;98894.69;5074240;28;20052;-80
2022/04/24 02:24:12;;;;;;;6.38;5.78;;;;;;;10.18;53.06;98900.47;5074181;28;20052;-79
2022/04/24 02:26:39;;;;;;;8.63;6.80;;;;;;;10.15;53.59;98890.88;5073305;28;20048;-79
2022/04/24 02:29:07;;;;;;;9.13;6.85;;;;;;;10.10;53.40;98905.00;5073284;28;20049;-79
2022/04/24 02:31:36;;;;;;;6.28;5.68;;;;;;;10.09;53.63;98903.38;5074004;28;20041;-79
2022/04/24 02:34:04;;;;;;;6.72;6.13;;;;;;;10.06;53.40;98901.31;5072033;28;20048;-79
2022/04/24 02:36:31;;;;;;;7.80;6.97;;;;;;;10.02;53.58;98892.84;5071017;22;20067;-78
2022/04/24 02:38:59;;;;;;;6.78;6.15;;;;;;;9.99;53.73;98896.31;5059384;28;20490;-79
2022/04/24 02:41:27;;;;;;;7.38;6.68;;;;;;;9.97;53.37;98893.06;5061596;28;20057;-79
2022/04/24 02:43:54;;;;;;;6.43;5.80;;;;;;;9.98;53.63;98897.50;5055450;28;20096;-79
2022/04/24 02:46:21;;;;;;;7.07;6.38;;;;;;;9.97;53.64;98901.41;5070940;28;20053;-79
2022/04/24 02:48:50;;;;;;;7.90;6.88;;;;;;;9.93;53.64;98900.50;5056249;28;20052;-79
2022/04/24 02:51:18;;;;;;;7.38;6.68;;;;;;;9.89;53.82;98905.13;5055785;28;20060;-80
2022/04/24 02:53:45;;;;;;;7.47;6.30;;;;;;;9.87;54.00;98901.88;5057882;28;20057;-79
2022/04/24 02:56:13;;;;;;;7.40;6.70;;;;;;;9.81;54.15;98906.88;5056692;28;20049;-80
2022/04/24 02:58:40;;;;;;;7.43;6.72;;;;;;;9.77;53.98;98910.72;5057480;28;20053;-80
2022/04/24 03:01:08;;;;;;;7.57;6.88;;;;;;;9.78;54.22;98912.31;5055577;28;20512;-78
2022/04/24 03:03:35;;;;;;;6.80;6.10;;;;;;;9.72;54.70;98909.78;5056868;28;20049;-78
2022/04/24 03:06:04;;;;;;;7.53;6.72;;;;;;;9.69;55.15;98902.13;5055675;28;20053;-78
2022/04/24 03:08:34;;;;;;;7.32;6.60;;;;;;;9.65;54.71;98915.09;5057757;28;20402;-78
2022/04/24 03:11:01;;;;;;;7.43;6.72;;;;;;;9.63;54.81;98913.81;5056825;28;20416;-77
2022/04/24 03:13:28;;;;;;;8.02;6.95;;;;;;;9.59;55.03;98904.56;5060942;28;20056;-77
2022/04/24 03:15:55;;;;;;;7.78;6.97;;;;;;;9.55;55.12;98907.22;5057283;28;20060;-78
2022/04/24 03:18:23;;;;;;;8.02;7.25;;;;;;;9.56;55.00;98897.72;5057229;28;20060;-79
2022/04/24 03:20:50;;;;;;;7.45;6.75;;;;;;;9.53;55.29;98901.19;5055663;28;20053;-78
2022/04/24 03:23:19;;;;;;;9.93;7.47;;;;;;;9.49;55.57;98903.88;5054043;28;20049;-78
2022/04/24 03:25:46;;;;;;;8.88;7.97;;;;;;;9.42;55.93;98905.59;5056667;28;20053;-78
2022/04/24 03:28:15;;;;;;;7.30;6.60;;;;;;;9.37;56.11;98909.41;5055970;28;20131;-77
2022/04/24 03:30:42;;;;;;;9.00;8.10;;;;;;;9.29;56.32;98908.34;5055796;28;20060;-77
2022/04/24 03:33:10;;;;;;;9.23;7.68;;;;;;;9.18;56.43;98907.16;5055721;28;20483;-78
2022/04/24 03:35:37;;;;;;;8.98;7.47;;;;;;;9.19;56.52;98906.00;5054176;28;20045;-78
2022/04/24 03:38:05;;;;;;;8.48;7.53;;;;;;;9.14;57.13;98900.69;5055840;28;20052;-78
2022/04/24 03:40:34;;;;;;;8.75;7.55;;;;;;;9.08;57.13;98902.03;5063269;28;20465;-79
2022/04/24 03:43:01;;;;;;;9.18;8.00;;;;;;;9.01;56.67;98901.78;5073419;28;20061;-79
2022/04/24 03:45:29;;;;;;;8.02;7.22;;;;;;;8.99;57.50;98901.31;5071106;28;20060;-79
2022/04/24 03:47:56;;;;;;;9.32;8.43;;;;;;;8.94;57.50;98897.63;5073035;28;20057;-78
2022/04/24 03:50:24;;;;;;;7.82;7.05;;;;;;;8.92;57.17;98904.66;5052540;28;20053;-78
2022/04/24 03:52:52;;;;;;;8.82;7.90;;;;;;;8.87;57.35;98902.91;5055487;28;20052;-79
2022/04/24 03:55:19;;;;;;;8.73;7.82;;;;;;;8.82;57.86;98905.91;5060791;28;20071;-78
2022/04/24 03:57:49;;;;;;;8.77;7.65;;;;;;;8.79;58.08;98905.75;5055920;28;20417;-79
2022/04/24 04:00:17;;;;;;;;;;;;;;;8.73;58.24;98905.16;5054192;28;20052;-79
2022/04/24 04:02:46;;;;;;;7.72;7.00;;;;;;;8.70;58.24;98905.84;5055593;28;19920;-79
2022/04/24 04:05:17;;;;;;;8.33;7.53;;;;;;;8.66;58.54;98902.94;5053975;28;20060;-79
2022/04/24 04:07:45;;;;;;;8.80;7.53;;;;;;;8.63;58.10;98909.19;5061138;28;20443;-79
2022/04/24 04:10:12;;;;;;;8.38;7.50;;;;;;;8.61;58.87;98910.66;5054752;28;20049;-79
2022/04/24 04:12:40;;;;;;;8.80;7.90;;;;;;;8.59;58.53;98916.56;5056532;28;20408;-79
2022/04/24 04:15:10;;;;;;;9.65;8.32;;;;;;;8.57;59.09;98912.47;5056043;28;20048;-78
2022/04/24 04:17:37;;;;;;;9.85;7.95;;;;;;;8.52;59.20;98908.78;5056620;28;20049;-79
2022/04/24 04:20:11;;;;;;;9.60;8.48;;;;;;;8.51;59.04;98918.25;5056560;28;20049;-79
2022/04/24 04:22:45;;;;;;;8.80;7.88;;;;;;;8.48;59.32;98918.94;5056165;28;20489;-79
2022/04/24 04:25:13;;;;;;;9.55;8.55;;;;;;;8.46;59.47;98926.78;5055193;28;20045;-79
2022/04/24 04:27:40;;;;;;;11.38;10.27;;;;;;;8.46;59.79;98920.41;5056492;28;20049;-78
2022/04/24 04:30:11;;;;;;;10.07;9.13;;;;;;;8.43;59.33;98921.91;5054543;28;20060;-78
2022/04/24 04:32:38;;;;;;;12.55;11.18;;;;;;;8.45;59.85;98924.34;5055103;28;20512;-79
2022/04/24 04:35:09;;;;;;;10.38;9.35;;;;;;;8.46;60.21;98925.94;5056241;28;20064;-79
2022/04/24 04:37:37;;;;;;;9.32;8.43;;;;;;;8.46;59.66;98924.00;5055961;28;20049;-79
2022/04/24 04:40:06;;;;;;;10.68;8.52;;;;;;;8.48;59.34;98918.94;5055240;28;20072;-79
2022/04/24 04:42:33;;;;;;;10.23;8.85;;;;;;;8.52;59.71;98930.16;5065088;28;20057;-78
2022/04/24 04:45:06;;;;;;;10.32;9.32;;;;;;;8.54;59.70;98934.19;5054123;28;20056;-79
2022/04/24 04:47:37;;;;;;;9.68;8.68;;;;;;;8.55;59.32;98935.03;5080446;28;20068;-79
2022/04/24 04:50:06;;;;;;;10.05;8.65;;;;;;;8.55;59.69;98935.03;5060866;28;20371;-79
2022/04/24 04:52:36;;;;;;;9.27;8.13;;;;;;;8.59;59.51;98927.66;5056023;28;20045;-78
2022/04/24 04:55:07;;;;;;;9.68;8.77;;;;;;;8.61;59.02;98933.69;5055575;28;20052;-80
2022/04/24 04:57:35;;;;;;;10.00;9.05;;;;;;;8.64;59.35;98938.53;5071592;28;20056;-79
2022/04/24 05:00:05;;;;;;;8.85;7.95;;;;;;;8.65;59.46;98933.78;5051205;28;20053;-79
2022/04/24 05:02:36;;;;;;;10.00;9.00;;;;;;;8.70;59.29;98951.06;5054256;28;20048;-79
2022/04/24 05:05:03;;;;;;;11.07;9.35;;;;;;;8.74;59.06;98948.44;5054020;28;20056;-79
2022/04/24 05:07:31;;;;;;;9.80;8.90;;;;;;;8.76;59.11;98946.13;5054733;28;20049;-79
2022/04/24 05:09:58;;;;;;;9.45;8.55;;;;;;;8.80;59.44;98952.63;5058450;28;20053;-80
2022/04/24 05:12:27;;;;;;;9.48;8.57;;;;;;;8.84;59.26;98953.56;5054955;28;20053;-79
2022/04/24 05:15:02;;;;;;;9.85;8.85;;;;;;;8.87;59.47;98958.44;5058100;28;20056;-79
2022/04/24 05:17:35;;;;;;;8.93;8.07;;;;;;;8.92;59.11;98958.25;5058982;28;20059;-79
2022/04/24 05:20:05;;;;;;;9.25;8.35;;;;;;;9.01;59.61;98962.88;5055351;28;20060;-78
2022/04/24 05:22:32;;;;;;;;;;;;;;;9.04;58.86;98960.22;5057496;28;20057;-78
2022/04/24 05:25:00;;;;;;;9.05;8.15;;;;;;;9.09;58.92;98960.03;5071719;28;19928;-79
2022/04/24 05:27:31;;;;;;;8.98;8.07;;;;;;;9.19;58.78;98953.22;5054444;28;20041;-78
2022/04/24 05:29:58;;;;;;;9.43;8.43;;;;;;;9.26;58.95;98961.00;5051046;28;20084;-78
2022/04/24 05:32:26;;;;;;;9.63;8.70;;;;;;;9.32;58.32;98968.78;5051570;28;20060;-79
2022/04/24 05:34:55;;;;;;;9.93;8.27;;;;;;;9.42;58.52;98961.97;5055853;28;20091;-77
2022/04/24 05:37:25;;;;;;;9.93;8.90;;;;;;;9.51;58.21;98975.75;5050516;28;20064;-78
2022/04/24 05:39:53;;;;;;;9.27;8.15;;;;;;;9.57;58.39;98968.81;5054131;28;20057;-77
2022/04/24 05:42:20;;;;;;;9.05;8.20;;;;;;;9.68;57.49;98970.03;5054544;28;20414;-79
2022/04/24 05:44:47;;;;;;;10.52;8.60;;;;;;;9.72;57.99;98968.19;5054169;28;20045;-79
2022/04/24 05:47:15;;;;;;;10.93;9.80;;;;;;;9.80;57.93;98965.63;5052780;28;20049;-79
2022/04/24 05:49:45;;;;;;;10.80;9.70;;;;;;;9.87;57.23;98965.84;5055331;28;20101;-79
2022/04/24 05:52:12;;;;;;;9.77;8.77;;;;;;;9.97;57.08;98973.72;5055664;28;20049;-78
2022/04/24 05:54:41;;;;;;;10.20;8.75;;;;;;;10.10;57.22;98967.03;5055165;28;20060;-79
2022/04/24 05:57:08;;;;;;;9.30;8.38;;;;;;;10.17;56.97;98963.66;5054101;28;20052;-79
2022/04/24 05:59:36;;;;;;;10.30;8.52;;;;;;;10.32;56.47;98964.94;5054651;28;20057;-79
2022/04/24 06:02:04;;;;;;;8.82;7.93;;;;;;;10.41;56.48;98965.63;5053563;28;20409;-79
2022/04/24 06:04:31;;;;;;;9.50;7.93;;;;;;;10.47;56.29;98960.63;5054970;28;20049;-78
2022/04/24 06:07:01;;;;;;;8.93;8.02;;;;;;;10.60;56.04;98965.00;5054170;28;20068;-78
2022/04/24 06:09:31;;;;;;;8.10;7.30;;;;;;;10.72;55.62;98966.97;5055449;28;20064;-78
2022/04/24 06:12:01;;;;;;;8.93;7.55;;;;;;;10.75;55.42;98966.25;5055053;28;20056;-79
2022/04/24 06:14:28;;;;;;;;;;;;;;;10.86;55.26;98972.97;5053598;28;20060;-78
2022/04/24 06:16:55;;;;;;;7.75;7.05;;;;;;;10.96;54.80;98963.28;5054508;28;19921;-79
2022/04/24 06:19:23;;;;;;;7.70;6.90;;;;;;;11.05;54.53;98971.50;5056010;28;20049;-79
2022/04/24 06:21:50;;;;;;;8.25;7.30;;;;;;;11.11;54.09;98968.09;5057407;28;20045;-79
2022/04/24 06:24:17;;;;;;;7.78;6.82;;;;;;;11.19;53.58;98966.31;5058313;28;20053;-78
2022/04/24 06:26:45;;;;;;;7.85;6.78;;;;;;;11.24;53.63;98962.47;5058123;28;20064;-79
2022/04/24 06:29:14;;;;;;;12.20;7.70;;;;;;;11.31;53.26;98966.25;5057357;28;20052;-82
2022/04/24 06:31:42;;;;;;;7.32;6.57;;;;;;;11.37;53.11;98962.03;5056084;28;20060;-81
2022/04/24 06:34:10;;;;;;;8.05;7.25;;;;;;;11.33;53.09;98966.69;5045917;28;20060;-81
2022/04/24 06:36:39;;;;;;;7.80;6.90;;;;;;;11.41;52.93;98969.69;5058171;28;20049;-83
2022/04/24 06:39:06;;;;;;;10.35;7.78;;;;;;;11.45;52.68;98967.81;5059853;28;20405;-82
2022/04/24 06:41:34;;;;;;;11.38;8.02;;;;;;;11.56;52.79;98960.53;5060108;28;20063;-81
2022/04/24 06:44:01;;;;;;;7.50;6.70;;;;;;;11.66;52.66;98967.56;5057344;28;20053;-82
2022/04/24 06:46:32;;;;;;;8.40;6.30;;;;;;;11.77;52.28;98969.47;5058458;28;20048;-82
2022/04/24 06:48:59;;;;;;;7.78;6.97;;;;;;;11.84;52.15;98971.63;5063838;28;20076;-81
2022/04/24 06:51:26;;;;;;;7.78;6.97;;;;;;;11.93;52.06;98977.06;5059830;28;20064;-82
2022/04/24 06:53:54;;;;;;;8.13;7.30;;;;;;;12.06;51.64;98967.41;5078786;28;20055;-80
2022/04/24 06:56:21;;;;;;;8.10;7.30;;;;;;;12.19;50.65;98966.13;5055995;28;20057;-80
2022/04/24 06:58:49;;;;;;;7.80;6.70;;;;;;;12.37;50.63;98965.75;5058242;28;20053;-81
2022/04/24 07:01:16;;;;;;;9.80;7.25;;;;;;;12.48;50.38;98961.22;5059023;28;20488;-81
2022/04/24 07:03:45;;;;;;;7.60;6.50;;;;;;;12.54;49.46;98964.56;5058036;28;20045;-80
2022/04/24 07:06:12;;;;;;;7.63;6.78;;;;;;;12.64;49.36;98960.34;5058329;28;20060;-82
2022/04/24 07:08:39;;;;;;;7.75;6.55;;;;;;;12.76;49.32;98963.03;5060885;28;20072;-81
2022/04/24 07:11:07;;;;;;;7.70;6.90;;;;;;;12.92;49.36;98966.56;5058719;28;20049;-82
2022/04/24 07:13:36;;;;;;;9.13;7.43;;;;;;;13.06;48.61;98959.66;5059459;28;20056;-81
2022/04/24 07:16:04;;;;;;;8.83;6.60;;;;;;;13.24;48.89;98963.63;5058959;28;20045;-81
2022/04/24 07:18:31;;;;;;;7.47;6.10;;;;;;;13.56;48.30;98964.25;5059108;28;20063;-81
2022/04/24 07:21:02;;;;;;;7.63;6.93;;;;;;;14.32;45.94;98959.91;5057460;28;20378;-82
2022/04/24 07:23:30;;;;;;;7.60;6.55;;;;;;;15.26;44.56;98959.19;5059888;28;20056;-82
2022/04/24 07:25:58;;;;;;;6.47;5.88;;;;;;;16.17;43.10;98962.53;5055701;28;20049;-79
2022/04/24 07:28:30;;;;;;;7.00;6.30;;;;;;;17.13;40.99;98955.88;5056612;28;20049;-81
2022/04/24 07:30:57;;;;;;;7.93;6.32;;;;;;;18.09;39.52;98958.09;5054330;28;20056;-80
2022/04/24 07:33:27;;;;;;;6.07;5.47;;;;;;;19.08;37.69;98955.50;5055561;28;20049;-80
2022/04/24 07:35:54;;;;;;;;;;;;;;;20.09;36.81;98950.09;5055216;28;20052;-82
2022/04/24 07:38:23;;;;;;;6.57;5.75;;;;;;;21.04;33.69;98951.56;5056873;28;19927;-80
2022/04/24 07:40:50;;;;;;;6.32;5.75;;;;;;;22.02;32.27;98949.03;5055196;28;20053;-79
2022/04/24 07:43:17;;;;;;;5.75;5.22;;;;;;;23.05;30.61;98954.13;5056073;28;20053;-80
2022/04/24 07:45:48;;;;;;;5.55;5.03;;;;;;;24.04;29.32;98958.88;5054622;28;20059;-81
2022/04/24 07:48:17;;;;;;;6.70;5.50;;;;;;;24.61;27.27;98942.41;5060675;28;20121;-79
2022/04/24 07:50:46;;;;;;;6.63;5.95;;;;;;;25.34;26.83;98941.97;5054160;28;20053;-82
2022/04/24 07:53:16;;;;;;;4.53;4.13;;;;;;;26.31;28.87;98944.63;5058328;28;20060;-78
2022/04/24 07:55:59;;;;;;;7.45;5.43;;;;;;;26.67;26.09;98947.09;5063770;28;20053;-79
2022/04/24 07:58:26;;;;;;;5.40;4.78;;;;;;;27.84;23.64;98954.56;5053980;28;20045;-81
2022/04/24 08:00:54;;;;;;;5.93;4.93;;;;;;;28.37;22.82;98942.22;5050029;28;20056;-78
2022/04/24 08:03:24;;;;;;;5.43;4.80;;;;;;;28.75;21.91;98949.63;5055536;28;20049;-79
2022/04/24 08:05:53;;;;;;;5.30;4.80;;;;;;;29.40;20.98;98941.78;5054091;28;20053;-79
2022/04/24 08:08:23;;;;;;;5.65;5.00;;;;;;;29.78;20.53;98951.91;5052489;28;20048;-79
2022/04/24 08:10:54;;;;;;;5.97;5.35;;;;;;;30.36;20.12;98949.88;5055672;28;20053;-78
2022/04/24 08:13:21;;;;;;;5.32;4.82;;;;;;;30.90;19.57;98958.66;5055168;28;20057;-78
2022/04/24 08:15:50;;;;;;;5.55;5.05;;;;;;;31.15;19.15;98952.34;5056116;28;20045;-80
2022/04/24 08:18:18;;;;;;;5.65;5.00;;;;;;;31.51;18.72;98950.41;5055019;28;20057;-79
2022/04/24 08:20:47;;;;;;;5.72;5.07;;;;;;;31.58;18.58;98954.19;5055763;28;20068;-79
2022/04/24 08:23:16;;;;;;;5.30;4.90;;;;;;;32.17;18.00;98954.13;5051979;28;20049;-79
2022/04/24 08:25:44;;;;;;;5.43;4.93;;;;;;;32.54;17.84;98951.53;5055199;28;20057;-79
2022/04/24 08:28:13;;;;;;;5.60;4.50;;;;;;;32.73;17.83;98954.94;5055049;28;20049;-79
2022/04/24 08:30:43;;;;;;;7.90;5.20;;;;;;;33.02;17.01;98947.41;5054737;28;20053;-79
2022/04/24 08:33:11;;;;;;;5.18;4.68;;;;;;;33.54;16.36;98947.47;5054813;28;20055;-79
2022/04/24 08:35:38;;;;;;;5.47;4.97;;;;;;;33.64;16.05;98950.19;5054748;28;20052;-79
2022/04/24 08:38:06;;;;;;;5.75;5.25;;;;;;;33.38;16.20;98945.19;5055152;28;20056;-81
2022/04/24 08:40:34;;;;;;;5.75;5.30;;;;;;;34.01;16.03;98949.44;5054654;28;20056;-78
2022/04/24 08:43:01;;;;;;;5.95;5.45;;;;;;;34.20;15.97;98941.19;5049548;28;20486;-78
2022/04/24 08:45:36;;;;;;;6.18;5.60;;;;;;;35.43;14.67;98949.63;5053475;28;20049;-78
2022/04/24 08:48:04;;;;;;;5.40;4.90;;;;;;;36.09;14.36;98941.47;5054673;28;20049;-80
2022/04/24 08:50:31;;;;;;;;;;;;;;;36.21;14.57;98941.50;5055529;28;20053;-79
2022/04/24 08:52:59;;;;;;;8.38;4.75;;;;;;;37.15;14.25;98945.41;5055006;28;19920;-78
2022/04/24 08:55:28;;;;;;;;;;;;;;;37.31;13.65;98949.53;5055020;28;20053;-81
2022/04/24 08:57:56;;;;;;;5.93;5.32;;;;;;;38.21;12.66;98953.88;5054034;28;19925;-79
2022/04/24 09:00:24;;;;;;;4.95;4.55;;;;;;;38.54;12.69;98940.34;5054736;28;20068;-79
2022/04/24 09:02:53;;;;;;;;;;;;;;;38.17;12.75;98948.34;5055227;28;20045;-79
2022/04/24 09:05:22;;;;;;;5.80;5.30;;;;;;;39.15;11.99;98940.91;5055052;28;19921;-80
2022/04/24 09:07:52;;;;;;;6.13;5.63;;;;;;;39.63;12.00;98944.16;5052485;28;20074;-79
2022/04/24 09:10:19;;;;;;;5.90;5.40;;;;;;;40.25;11.60;98940.97;5053927;28;20076;-79
2022/04/24 09:12:54;;;;;;;5.70;5.20;;;;;;;40.33;11.41;98941.13;5052565;28;20053;-79
2022/04/24 09:15:21;;;;;;;5.55;5.05;;;;;;;40.54;11.26;98938.34;5051871;28;20052;-78
2022/04/24 09:17:49;;;;;;;6.55;5.95;;;;;;;40.71;11.31;98935.84;5053415;28;20084;-79
2022/04/24 09:20:20;;;;;;;5.68;5.18;;;;;;;40.91;11.28;98924.84;5058048;28;20053;-78
2022/04/24 09:22:48;;;;;;;5.68;5.18;;;;;;;41.11;11.09;98929.97;5058707;28;20053;-78
2022/04/24 09:25:15;;;;;;;5.60;5.18;;;;;;;41.31;10.70;98942.31;5059699;28;20057;-78
2022/04/24 09:27:43;;;;;;;5.43;4.93;;;;;;;41.36;11.03;98926.78;5055608;28;20053;-78
2022/04/24 09:30:12;;;;;;;5.35;4.90;;;;;;;41.71;10.62;98937.13;5044613;28;21489;-78
2022/04/24 09:32:48;;;;;;;5.55;5.15;;;;;;;41.92;10.10;98931.25;5063006;28;20049;-80
2022/04/24 09:35:30;;;;;;;5.43;4.90;;;;;;;42.11;10.02;98927.34;5059355;28;20458;-79
2022/04/24 09:38:13;;;;;;;5.70;5.20;;;;;;;42.08;9.70;98925.56;5038858;28;20049;-80
2022/04/24 09:40:42;;;;;;;6.18;5.68;;;;;;;42.07;9.71;98935.69;5035599;28;20116;-80
2022/04/24 09:43:10;;;;;;;5.82;5.32;;;;;;;42.18;9.83;98926.59;5036887;28;20068;-80
2022/04/24 09:45:39;;;;;;;5.97;5.47;;;;;;;42.31;10.04;98925.72;5038020;28;20049;-80
2022/04/24 09:48:14;;;;;;;5.43;5.03;;;;;;;42.04;9.52;98922.19;5038543;28;20057;-79
2022/04/24 09:50:43;;;;;;;6.10;5.63;;;;;;;42.12;9.69;98928.91;5034972;28;20048;-79
2022/04/24 09:53:14;;;;;;;5.93;5.22;;;;;;;42.04;9.49;98922.19;5019255;28;20054;-78
2022/04/24 09:55:43;;;;;;;6.00;5.40;;;;;;;41.98;9.94;98926.03;5027818;28;20061;-79
2022/04/24 09:58:12;;;;;;;5.95;5.40;;;;;;;42.19;9.35;98916.50;5029264;28;20046;-80
2022/04/24 10:00:41;;;;;;;5.30;4.88;;;;;;;42.35;10.16;98920.28;5020156;28;20053;-80
2022/04/24 10:03:10;;;;;;;5.68;5.10;;;;;;;42.19;10.04;98931.13;5033991;28;20045;-79
2022/04/24 10:05:38;;;;;;;6.30;5.80;;;;;;;42.67;9.53;98913.28;5029154;28;20045;-80
2022/04/24 10:08:10;;;;;;;5.45;5.00;;;;;;;42.90;9.44;98928.06;5026468;28;20049;-80
2022/04/24 10:10:40;;;;;;;6.13;5.63;;;;;;;42.78;9.21;98918.81;5030784;28;20406;-80
2022/04/24 10:13:12;;;;;;;5.75;5.18;;;;;;;42.63;10.30;98919.53;5032362;28;20049;-80
2022/04/24 10:15:47;;;;;;;6.03;5.43;;;;;;;42.73;9.47;98923.47;5030803;28;20045;-80
2022/04/24 10:18:33;;;;;;;6.40;5.90;;;;;;;42.60;9.41;98916.97;5035681;28;20060;-82
2022/04/24 10:21:32;;;;;;;5.80;5.30;;;;;;;42.92;9.68;98934.13;5036304;28;20061;-82
2022/04/24 10:24:09;;;;;;;5.95;5.38;;;;;;;43.05;9.21;98930.28;5031824;28;20422;-82
2022/04/24 10:26:40;;;;;;;6.47;5.38;;;;;;;43.39;9.04;98924.19;5029813;28;20045;-82
2022/04/24 10:29:09;;;;;;;5.30;4.90;;;;;;;43.80;8.93;98921.53;5036498;28;20053;-82
2022/04/24 10:31:44;;;;;;;6.70;5.10;;;;;;;43.35;8.83;98920.84;5037404;28;20049;-82
2022/04/24 10:34:13;;;;;;;6.40;5.90;;;;;;;43.06;8.54;98920.13;5034206;28;20057;-82
2022/04/24 10:36:54;;;;;;;6.57;6.05;;;;;;;42.26;8.87;98933.31;5046703;28;20394;-82
2022/04/24 10:39:23;;;;;;;5.70;5.20;;;;;;;42.76;8.94;98931.09;5057874;28;20053;-82
2022/04/24 10:41:56;;;;;;;6.15;5.55;;;;;;;42.82;9.05;98921.34;5057651;28;20053;-82
2022/04/24 10:44:23;;;;;;;6.10;5.60;;;;;;;42.40;9.27;98931.06;5058375;28;20343;-81
2022/04/24 10:46:53;;;;;;;6.18;5.68;;;;;;;42.72;9.04;98918.97;5058235;28;20049;-81
2022/04/24 10:49:24;;;;;;;5.75;5.25;;;;;;;42.81;8.91;98922.72;5056154;28;20390;-82
2022/04/24 10:52:03;;;;;;;5.80;5.18;;;;;;;43.01;9.06;98921.88;5058495;28;20045;-82
2022/04/24 10:54:34;;;;;;;6.43;5.93;;;;;;;42.92;9.13;98923.19;5057867;28;20064;-81
2022/04/24 10:57:02;;;;;;;6.10;5.53;;;;;;;42.63;8.70;98918.72;5057143;28;20044;-81
2022/04/24 10:59:44;;;;;;;6.25;5.68;;;;;;;42.18;8.97;98920.75;5056218;28;20482;-83
2022/04/24 11:02:12;;;;;;;6.15;5.55;;;;;;;41.96;9.03;98911.22;5056250;28;20056;-82
2022/04/24 11:04:43;;;;;;;5.80;5.30;;;;;;;41.34;9.55;98920.72;5054685;28;20469;-81
2022/04/24 11:07:21;;;;;;;5.75;5.25;;;;;;;41.02;10.12;98923.84;5059908;28;20049;-81
2022/04/24 11:10:01;;;;;;;6.28;5.68;;;;;;;41.35;9.66;98922.28;5059943;28;20052;-81
2022/04/24 11:12:31;;;;;;;5.88;5.38;;;;;;;41.01;10.36;98923.03;5061153;28;20052;-81
2022/04/24 11:15:03;;;;;;;5.82;5.40;;;;;;;41.11;10.17;98902.91;5061549;28;20060;-81
2022/04/24 11:17:30;;;;;;;5.47;5.05;;;;;;;41.47;9.81;98908.19;5059542;28;20057;-81
2022/04/24 11:20:03;;;;;;;5.90;5.40;;;;;;;41.98;9.87;98907.72;5060533;28;20065;-81
2022/04/24 11:22:31;;;;;;;5.53;5.03;;;;;;;41.77;9.95;98928.97;5066514;28;20441;-81
2022/04/24 11:25:01;;;;;;;5.97;5.47;;;;;;;41.85;9.44;98923.19;5058276;28;20056;-82
2022/04/24 11:27:28;;;;;;;6.45;5.85;;;;;;;42.15;8.83;98907.28;5040238;28;20053;-82
2022/04/24 11:29:56;;;;;;;6.20;5.68;;;;;;;41.96;9.21;98905.34;5058391;28;20048;-82
2022/04/24 11:32:23;;;;;;;6.28;5.68;;;;;;;40.83;9.64;98904.31;5060734;28;20425;-82
2022/04/24 11:34:51;;;;;;;5.88;5.35;;;;;;;40.19;10.57;98911.13;5060384;28;20060;-82
2022/04/24 11:37:18;;;;;;;8.27;5.75;;;;;;;38.89;10.90;98913.19;5059768;28;20498;-81
2022/04/24 11:39:46;;;;;;;6.35;5.85;;;;;;;38.80;10.62;98921.50;5057719;28;20056;-80
2022/04/24 11:42:14;;;;;;;7.10;6.53;;;;;;;38.99;11.24;98910.66;5058902;28;20056;-80
2022/04/24 11:50:15;;;;;;;5.50;5.00;;;;;;;37.70;11.83;98913.63;5062237;28;20417;-80
2022/04/24 11:52:44;;;;;;;6.25;5.75;;;;;;;37.25;12.81;98924.75;5056824;28;20052;-80